Time;durP1;ratioP1;P1;durP2;ratioP2;P2;SDS_P1;SDS_P2;PMS_P1;PMS_P2;Temp;Humidity;BMP_temperature;BMP_pressure;BME280_temperature;BME280_humidity;BME280_pressure;Samples;Min_cycle;Max_cycle;Signal;HPM_P1;HPM_P2
2023/05/23 00:00:53;;;;;;;16.80;4.75;;;14.80;99.90;;;;;;5055956;28;20025;-76
2023/05/23 00:03:21;;;;;;;13.40;4.72;;;14.70;99.90;;;;;;5055761;28;20503;-77
2023/05/23 00:05:48;;;;;;;15.63;5.10;;;14.70;99.90;;;;;;5038105;28;20036;-77
2023/05/23 00:08:13;;;;;;;15.55;4.82;;;14.70;99.90;;;;;;5055756;28;20029;-76
2023/05/23 00:10:39;;;;;;;12.73;4.88;;;14.70;99.90;;;;;;5055664;28;20029;-76
2023/05/23 00:13:08;;;;;;;15.23;4.68;;;14.70;99.90;;;;;;5055820;28;20024;-76
2023/05/23 00:15:36;;;;;;;14.07;6.47;;;14.60;99.90;;;;;;5055714;28;20044;-77
2023/05/23 00:18:02;;;;;;;16.77;5.97;;;14.50;99.90;;;;;;5055582;28;20021;-76
2023/05/23 00:20:28;;;;;;;17.25;5.57;;;14.50;99.90;;;;;;5037762;28;20396;-77
2023/05/23 00:22:57;;;;;;;17.13;4.80;;;14.50;99.90;;;;;;5055546;28;20028;-77
2023/05/23 00:25:23;;;;;;;12.95;4.53;;;14.70;99.90;;;;;;5055542;28;20094;-77
2023/05/23 00:27:49;;;;;;;12.55;4.65;;;14.40;99.90;;;;;;5055363;28;20070;-77
2023/05/23 00:30:15;;;;;;;13.07;4.55;;;14.40;99.90;;;;;;5055445;28;20029;-76
2023/05/23 00:32:40;;;;;;;13.02;4.65;;;14.40;99.90;;;;;;5055458;28;20467;-77
2023/05/23 00:35:06;;;;;;;19.90;5.05;;;15.00;99.90;;;;;;5055295;28;20431;-77
2023/05/23 00:37:33;;;;;;;10.32;4.00;;;14.30;99.90;;;;;;5055378;28;20029;-77
2023/05/23 00:39:58;;;;;;;16.23;4.95;;;14.30;99.90;;;;;;5054300;28;20029;-77
2023/05/23 00:42:24;;;;;;;15.20;5.20;;;15.80;99.90;;;;;;5055013;28;20035;-76
2023/05/23 00:44:50;;;;;;;17.90;4.93;;;14.20;99.90;;;;;;5055205;28;20430;-77
2023/05/23 00:47:16;;;;;;;21.35;5.32;;;14.20;99.90;;;;;;5037276;28;20025;-76
2023/05/23 00:49:42;;;;;;;19.50;7.13;;;14.20;99.90;;;;;;5054809;28;20060;-77
2023/05/23 00:52:08;;;;;;;19.75;6.78;;;14.20;99.90;;;;;;5054948;28;20026;-77
2023/05/23 00:54:35;;;;;;;19.80;6.15;;;14.10;99.90;;;;;;5054944;28;20067;-77
2023/05/23 00:57:01;;;;;;;16.67;6.88;;;14.00;99.90;;;;;;5054983;28;20477;-77
2023/05/23 00:59:27;;;;;;;25.17;7.13;;;14.00;99.90;;;;;;5037309;28;20491;-76
2023/05/23 01:01:55;;;;;;;19.05;6.07;;;13.90;99.90;;;;;;5054696;28;20071;-76
2023/05/23 01:04:25;;;;;;;17.87;6.53;;;14.00;99.90;;;;;;5054662;28;20496;-77
2023/05/23 01:06:53;;;;;;;20.77;6.68;;;13.90;99.90;;;;;;5054786;28;20790;-77
2023/05/23 01:09:19;;;;;;;12.18;4.80;;;13.90;99.90;;;;;;5054901;28;20021;-76
2023/05/23 01:11:57;;;;;;;11.02;3.90;;;14.00;99.90;;;;;;5054673;28;20017;-77
2023/05/23 01:14:39;;;;;;;9.85;4.03;;;14.00;99.90;;;;;;5054786;28;20024;-77
2023/05/23 01:17:16;;;;;;;17.83;3.53;;;14.00;99.90;;;;;;5054603;28;20027;-77
2023/05/23 01:19:47;;;;;;;13.52;2.85;;;14.00;99.90;;;;;;5037181;28;20031;-77
2023/05/23 01:22:38;;;;;;;8.68;1.92;;;14.00;99.90;;;;;;5054294;28;20108;-77
2023/05/23 01:25:27;;;;;;;7.88;2.33;;;14.00;99.90;;;;;;5054638;28;20025;-77
2023/05/23 01:27:59;;;;;;;8.80;1.73;;;13.90;99.90;;;;;;5054320;28;20104;-77
2023/05/23 01:30:30;;;;;;;4.82;1.95;;;13.90;99.90;;;;;;5054713;28;20017;-77
2023/05/23 01:32:58;;;;;;;6.80;1.98;;;13.90;99.90;;;;;;5054561;28;20036;-76
2023/05/23 01:35:28;;;;;;;6.50;1.70;;;13.90;99.90;;;;;;5054125;28;20029;-76
2023/05/23 01:37:54;;;;;;;7.40;2.50;;;13.90;99.90;;;;;;5035887;28;20056;-76
2023/05/23 01:40:21;;;;;;;6.22;2.03;;;13.90;99.90;;;;;;5054051;28;20067;-76
2023/05/23 01:42:47;;;;;;;5.10;1.50;;;13.90;99.90;;;;;;5053988;28;20040;-76
2023/05/23 01:45:14;;;;;;;4.07;1.83;;;13.80;99.90;;;;;;5053981;28;20028;-77
2023/05/23 01:47:41;;;;;;;6.82;1.80;;;13.90;99.90;;;;;;5053874;28;20028;-77
2023/05/23 01:50:08;;;;;;;5.15;1.70;;;13.80;99.90;;;;;;5035888;28;20052;-77
2023/05/23 01:52:34;;;;;;;3.83;1.20;;;13.90;99.90;;;;;;5034974;28;20021;-77
2023/05/23 01:55:01;;;;;;;7.43;1.70;;;13.60;99.90;;;;;;5035916;28;20039;-76
2023/05/23 01:57:29;;;;;;;7.63;1.80;;;13.90;99.90;;;;;;5053672;28;20025;-77
2023/05/23 01:59:55;;;;;;;4.65;1.60;;;13.90;99.90;;;;;;5035715;28;20052;-77
2023/05/23 02:02:20;;;;;;;7.35;2.28;;;13.90;99.90;;;;;;5035659;28;20107;-77
2023/05/23 02:04:48;;;;;;;5.55;1.63;;;13.90;99.90;;;;;;5053717;28;20029;-77
2023/05/23 02:07:13;;;;;;;12.63;2.58;;;13.90;99.90;;;;;;5053672;28;20443;-77
2023/05/23 02:09:39;;;;;;;7.35;2.05;;;13.90;99.90;;;;;;5053567;28;20020;-77
2023/05/23 02:12:05;;;;;;;9.70;3.58;;;13.90;99.90;;;;;;5053518;28;20025;-77
2023/05/23 02:14:30;;;;;;;10.57;1.98;;;13.80;99.90;;;;;;5035643;28;20021;-77
2023/05/23 02:16:56;;;;;;;7.80;3.40;;;13.80;99.90;;;;;;5035626;28;20377;-77
2023/05/23 02:19:22;;;;;;;9.18;2.75;;;13.80;99.90;;;;;;5035571;28;20115;-76
2023/05/23 02:21:47;;;;;;;7.28;2.60;;;13.80;99.90;;;;;;5053600;28;20477;-76
2023/05/23 02:24:13;;;;;;;9.88;2.75;;;13.80;99.90;;;;;;5053148;28;20392;-77
2023/05/23 02:26:38;;;;;;;7.10;2.78;;;13.80;99.90;;;;;;5053191;28;20063;-77
2023/05/23 02:29:04;;;;;;;8.93;3.00;;;13.80;99.90;;;;;;5053204;28;20032;-77
2023/05/23 02:31:30;;;;;;;11.45;2.70;;;13.80;99.90;;;;;;5053215;28;20032;-76
2023/05/23 02:33:55;;;;;;;11.02;2.83;;;13.80;99.90;;;;;;5053086;28;20029;-77
2023/05/23 02:36:21;;;;;;;13.93;4.03;;;13.90;99.90;;;;;;5053261;28;20036;-77
2023/05/23 02:38:47;;;;;;;7.82;2.00;;;13.90;99.90;;;;;;5035293;28;20032;-76
2023/05/23 02:41:12;;;;;;;9.98;3.08;;;13.90;99.90;;;;;;5053187;28;20373;-77
2023/05/23 02:43:38;;;;;;;11.10;2.65;;;13.80;99.90;;;;;;5053001;28;20028;-77
2023/05/23 02:46:03;;;;;;;8.18;2.72;;;13.80;99.90;;;;;;5052997;28;20071;-77
2023/05/23 02:48:29;;;;;;;12.82;2.83;;;13.80;99.90;;;;;;5053114;28;20025;-77
2023/05/23 02:50:55;;;;;;;14.68;3.20;;;14.00;99.90;;;;;;5035241;28;20117;-77
2023/05/23 02:53:21;;;;;;;9.18;2.65;;;13.80;99.90;;;;;;5035447;28;20045;-76
2023/05/23 02:55:46;;;;;;;10.45;2.70;;;13.80;99.90;;;;;;5052921;28;20032;-76
2023/05/23 02:58:12;;;;;;;12.07;3.17;;;13.80;99.90;;;;;;5052828;28;20134;-77
2023/05/23 03:00:38;;;;;;;12.45;3.30;;;13.80;99.90;;;;;;5053007;28;20098;-77
2023/05/23 03:03:04;;;;;;;13.70;3.97;;;13.80;99.90;;;;;;5035475;28;20025;-77
2023/05/23 03:05:29;;;;;;;14.52;4.20;;;13.90;99.90;;;;;;5057002;28;20480;-76
2023/05/23 03:07:56;;;;;;;15.40;3.88;;;13.80;99.90;;;;;;5056798;28;20495;-77
2023/05/23 03:10:24;;;;;;;10.10;2.33;;;13.90;99.90;;;;;;5039184;28;20013;-77
2023/05/23 03:12:50;;;;;;;14.88;3.45;;;13.80;99.90;;;;;;5038897;28;20144;-77
2023/05/23 03:15:15;;;;;;;15.10;2.97;;;13.80;99.90;;;;;;5055215;28;20472;-77
2023/05/23 03:17:41;;;;;;;13.60;3.15;;;13.80;99.90;;;;;;5057146;28;20052;-77
2023/05/23 03:20:08;;;;;;;14.20;3.40;;;13.80;99.90;;;;;;5056673;28;20032;-77
2023/05/23 03:22:35;;;;;;;15.68;3.50;;;13.70;99.90;;;;;;5038785;28;20024;-77
2023/05/23 03:25:00;;;;;;;14.35;3.53;;;13.70;99.90;;;;;;5038787;28;20017;-77
2023/05/23 03:27:26;;;;;;;20.05;4.05;;;13.80;99.90;;;;;;5056624;28;20104;-77
2023/05/23 03:29:52;;;;;;;17.00;3.15;;;13.70;99.90;;;;;;5039046;28;20021;-77
2023/05/23 03:32:17;;;;;;;9.45;3.08;;;13.70;99.90;;;;;;5056495;28;20100;-76
2023/05/23 03:34:43;;;;;;;10.45;3.13;;;13.90;99.90;;;;;;5038716;28;20025;-76
2023/05/23 03:37:08;;;;;;;14.50;2.97;;;13.60;99.90;;;;;;5056499;28;20071;-76
2023/05/23 03:39:34;;;;;;;17.65;3.63;;;13.60;99.90;;;;;;5056519;28;20029;-77
2023/05/23 03:41:59;;;;;;;14.63;2.80;;;13.50;99.90;;;;;;5038399;28;20079;-77
2023/05/23 03:44:25;;;;;;;16.67;4.00;;;13.50;99.90;;;;;;5038261;28;20103;-77
2023/05/23 03:46:51;;;;;;;21.75;4.00;;;13.50;99.90;;;;;;5056250;28;20029;-77
2023/05/23 03:49:16;;;;;;;16.33;3.42;;;13.50;99.90;;;;;;5055903;28;20036;-76
2023/05/23 03:51:42;;;;;;;12.98;2.72;;;13.50;99.90;;;;;;5038346;28;20021;-77
2023/05/23 03:54:07;;;;;;;16.52;3.20;;;13.50;99.90;;;;;;5038904;28;20510;-77
2023/05/23 03:56:33;;;;;;;14.73;2.55;;;13.40;99.90;;;;;;5056033;28;20029;-77
2023/05/23 03:58:58;;;;;;;14.80;2.47;;;13.40;99.90;;;;;;5055809;28;20100;-77
2023/05/23 04:01:24;;;;;;;8.70;1.80;;;13.50;99.90;;;;;;5038086;28;20059;-77
2023/05/23 04:03:50;;;;;;;14.85;2.45;;;13.40;99.90;;;;;;5056210;28;20388;-77
2023/05/23 04:06:16;;;;;;;12.05;2.80;;;13.40;99.90;;;;;;5055982;28;20476;-76
2023/05/23 04:08:42;;;;;;;12.02;1.98;;;13.40;99.90;;;;;;5055862;28;20108;-77
2023/05/23 04:11:08;;;;;;;10.13;1.60;;;13.40;99.90;;;;;;5037830;28;20059;-77
2023/05/23 04:13:33;;;;;;;11.85;1.95;;;13.30;99.90;;;;;;5037950;28;20036;-76
2023/05/23 04:16:00;;;;;;;10.63;2.22;;;13.40;99.90;;;;;;5054527;28;20511;-76
2023/05/23 04:18:27;;;;;;;13.10;1.83;;;13.40;99.90;;;;;;5055689;28;20173;-76
2023/05/23 04:20:53;;;;;;;12.45;2.75;;;13.30;99.90;;;;;;5037874;28;20050;-76
2023/05/23 04:23:19;;;;;;;12.88;1.38;;;13.30;99.90;;;;;;5055446;28;20555;-77
2023/05/23 04:25:44;;;;;;;6.30;1.65;;;13.30;99.90;;;;;;5037669;28;20020;-77
2023/05/23 04:28:11;;;;;;;5.80;1.80;;;13.20;99.90;;;;;;5055808;28;20062;-77
2023/05/23 04:30:36;;;;;;;9.80;1.30;;;13.20;99.90;;;;;;5055690;28;20025;-77
2023/05/23 04:33:02;;;;;;;4.03;0.90;;;13.20;99.90;;;;;;5055399;28;20025;-77
2023/05/23 04:35:28;;;;;;;9.65;1.65;;;;;;;;;;5055288;28;20100;-77
2023/05/23 04:37:55;;;;;;;7.63;1.27;;;13.10;99.90;;;;;;5037451;28;20079;-76
2023/05/23 04:40:23;;;;;;;7.82;1.00;;;13.20;99.90;;;;;;5055733;28;20024;-76
2023/05/23 04:42:50;;;;;;;6.03;1.00;;;13.10;99.90;;;;;;5055264;28;20456;-76
2023/05/23 04:45:18;;;;;;;7.80;0.70;;;13.10;99.90;;;;;;5037409;28;20021;-76
2023/05/23 04:47:45;;;;;;;7.57;0.65;;;13.10;99.90;;;;;;5055266;28;20074;-77
2023/05/23 04:50:11;;;;;;;9.13;1.70;;;13.00;99.90;;;;;;5037256;28;20079;-76
2023/05/23 04:52:36;;;;;;;10.35;1.52;;;13.00;99.90;;;;;;5055215;28;20420;-76
2023/05/23 04:55:02;;;;;;;11.02;1.75;;;13.00;99.90;;;;;;5054982;28;20112;-77
2023/05/23 04:57:28;;;;;;;7.32;1.67;;;13.00;99.90;;;;;;5055085;28;20029;-77
2023/05/23 04:59:53;;;;;;;11.68;1.65;;;12.90;99.90;;;;;;5054975;28;20472;-76
2023/05/23 05:02:19;;;;;;;10.45;1.27;;;12.90;99.90;;;;;;5054893;28;20031;-76
2023/05/23 05:04:44;;;;;;;4.57;1.00;;;14.10;99.90;;;;;;5054781;28;20096;-76
2023/05/23 05:07:10;;;;;;;9.93;0.93;;;12.80;99.90;;;;;;5054650;28;20017;-76
2023/05/23 05:09:36;;;;;;;8.88;1.20;;;12.80;99.90;;;;;;5054673;28;20107;-77
2023/05/23 05:12:01;;;;;;;7.60;0.95;;;12.80;99.90;;;;;;5036979;28;20017;-77
2023/05/23 05:14:27;;;;;;;6.03;1.13;;;12.70;99.90;;;;;;5036788;28;20025;-76
2023/05/23 05:16:56;;;;;;;7.90;1.50;;;13.80;99.90;;;;;;5054697;28;20032;-77
2023/05/23 05:19:24;;;;;;;;;;;12.70;99.90;;;;;;5054977;28;20466;-76
2023/05/23 05:21:51;;;;;;;9.38;0.98;;;12.70;99.90;;;;;;5036947;28;19905;-77
2023/05/23 05:24:19;;;;;;;7.22;1.77;;;12.70;99.90;;;;;;5036576;28;20492;-77
2023/05/23 05:26:45;;;;;;;13.73;1.40;;;13.00;99.90;;;;;;5054144;28;20021;-77
2023/05/23 05:29:12;;;;;;;13.70;2.05;;;12.70;99.90;;;;;;5054329;28;20542;-77
2023/05/23 05:31:37;;;;;;;10.20;1.75;;;13.40;99.90;;;;;;5036460;28;20041;-77
2023/05/23 05:34:03;;;;;;;10.43;1.65;;;12.80;99.90;;;;;;5036571;28;20362;-77
2023/05/23 05:36:31;;;;;;;7.20;1.10;;;12.80;99.90;;;;;;5036320;28;20131;-77
2023/05/23 05:38:56;;;;;;;6.30;1.23;;;12.80;99.90;;;;;;5054249;28;20051;-77
2023/05/23 05:41:22;;;;;;;7.70;2.47;;;12.90;99.90;;;;;;5054424;28;20443;-77
2023/05/23 05:43:47;;;;;;;8.02;1.00;;;12.90;99.90;;;;;;5036124;28;20419;-76
2023/05/23 05:46:13;;;;;;;5.95;1.20;;;14.10;99.90;;;;;;5054464;28;20021;-77
2023/05/23 05:48:39;;;;;;;10.60;1.55;;;12.90;99.90;;;;;;5054397;28;20025;-77
2023/05/23 05:51:05;;;;;;;10.20;1.38;;;13.00;99.90;;;;;;5054177;28;20081;-77
2023/05/23 05:53:30;;;;;;;8.18;2.15;;;13.10;99.90;;;;;;5054573;28;20092;-76
2023/05/23 05:55:56;;;;;;;9.35;1.38;;;13.00;99.90;;;;;;5036138;28;20037;-76
2023/05/23 05:58:21;;;;;;;8.57;2.25;;;13.10;99.90;;;;;;5053832;28;20029;-76
2023/05/23 06:00:47;;;;;;;6.90;1.60;;;13.10;99.90;;;;;;5035960;28;20361;-76
2023/05/23 06:03:14;;;;;;;10.63;2.15;;;13.10;99.90;;;;;;5036061;28;20029;-76
2023/05/23 06:05:40;;;;;;;13.38;1.90;;;13.00;99.90;;;;;;5035771;28;20391;-76
2023/05/23 06:08:06;;;;;;;7.30;1.75;;;13.00;99.90;;;;;;5053473;28;20013;-76
2023/05/23 06:10:32;;;;;;;12.57;2.10;;;13.00;99.90;;;;;;5054220;28;20341;-76
2023/05/23 06:12:58;;;;;;;11.07;2.10;;;13.00;99.90;;;;;;5053687;28;20071;-76
2023/05/23 06:15:25;;;;;;;7.93;1.65;;;12.90;99.90;;;;;;5053734;28;20029;-76
2023/05/23 06:17:51;;;;;;;8.75;1.75;;;13.00;99.90;;;;;;5035859;28;20025;-76
2023/05/23 06:20:16;;;;;;;11.55;2.60;;;12.90;99.90;;;;;;5052051;28;20414;-76
2023/05/23 06:22:42;;;;;;;12.65;3.08;;;13.00;99.90;;;;;;5052323;28;20320;-76
2023/05/23 06:25:08;;;;;;;13.10;1.98;;;13.00;99.90;;;;;;5053025;28;20017;-76
2023/05/23 06:27:33;;;;;;;10.10;2.25;;;13.00;99.90;;;;;;5034449;28;20048;-76
2023/05/23 06:29:59;;;;;;;11.60;2.75;;;13.00;99.90;;;;;;5035195;28;20024;-76
2023/05/23 06:32:25;;;;;;;5.85;1.63;;;12.90;99.90;;;;;;5053314;28;20075;-76
2023/05/23 06:34:50;;;;;;;8.10;1.60;;;13.00;99.90;;;;;;5053910;28;20079;-76
2023/05/23 06:37:16;;;;;;;8.38;0.75;;;12.90;99.90;;;;;;5053677;28;20021;-76
2023/05/23 06:39:42;;;;;;;8.18;2.03;;;12.90;99.90;;;;;;5052803;28;20032;-76
2023/05/23 06:42:08;;;;;;;11.13;1.60;;;13.40;99.90;;;;;;5053282;28;20021;-76
2023/05/23 06:44:34;;;;;;;10.45;2.38;;;12.80;99.90;;;;;;5053157;28;20031;-76
2023/05/23 06:46:59;;;;;;;7.05;1.40;;;12.80;99.90;;;;;;5053309;28;20017;-76
2023/05/23 06:49:25;;;;;;;8.43;1.08;;;12.70;99.90;;;;;;5053085;28;20555;-76
2023/05/23 06:51:51;;;;;;;10.15;1.98;;;12.70;99.90;;;;;;5035244;28;20017;-76
2023/05/23 06:54:17;;;;;;;11.30;2.20;;;12.70;99.90;;;;;;5035277;28;20207;-76
2023/05/23 06:56:43;;;;;;;9.50;1.45;;;12.70;99.90;;;;;;5053047;28;20029;-76
2023/05/23 06:59:08;;;;;;;10.43;1.02;;;12.80;99.90;;;;;;5052904;28;20017;-76
2023/05/23 07:01:34;;;;;;;11.10;1.08;;;12.80;99.90;;;;;;5053599;28;20533;-76
2023/05/23 07:03:59;;;;;;;9.25;1.30;;;12.80;99.90;;;;;;5053221;28;20021;-76
2023/05/23 07:06:28;;;;;;;5.00;0.77;;;12.70;99.90;;;;;;5053074;28;20135;-76
2023/05/23 07:08:54;;;;;;;11.40;0.95;;;12.70;99.90;;;;;;5052910;28;20018;-76
2023/05/23 07:11:22;;;;;;;8.85;1.98;;;12.70;99.90;;;;;;5053253;28;20372;-76
2023/05/23 07:13:48;;;;;;;5.43;0.40;;;12.70;99.90;;;;;;5035187;28;20499;-76
2023/05/23 07:16:13;;;;;;;3.20;0.50;;;12.60;99.90;;;;;;5053025;28;20032;-76
2023/05/23 07:18:39;;;;;;;10.45;0.50;;;12.80;99.90;;;;;;5052813;28;20440;-76
2023/05/23 07:21:05;;;;;;;9.70;1.75;;;12.90;99.90;;;;;;5053270;28;20107;-76
2023/05/23 07:23:33;;;;;;;11.25;0.80;;;13.10;99.90;;;;;;5053273;28;20029;-76
2023/05/23 07:25:59;;;;;;;11.02;1.02;;;13.40;99.90;;;;;;5035406;28;20028;-76
2023/05/23 07:28:25;;;;;;;8.13;0.22;;;13.70;99.90;;;;;;5053269;28;20017;-76
2023/05/23 07:30:51;;;;;;;7.93;0.82;;;13.70;99.90;;;;;;5052877;28;20476;-76
2023/05/23 07:33:16;;;;;;;4.35;0.10;;;14.10;99.90;;;;;;5053414;28;20035;-76
2023/05/23 07:35:43;;;;;;;12.85;1.15;;;14.30;99.90;;;;;;5052836;28;20107;-76
2023/05/23 07:38:09;;;;;;;5.68;0.60;;;14.50;99.90;;;;;;5052692;28;20028;-76
2023/05/23 07:40:35;;;;;;;5.55;0.55;;;14.50;99.90;;;;;;5052815;28;20029;-76
2023/05/23 07:43:00;;;;;;;7.68;0.47;;;14.60;99.90;;;;;;5034749;28;20115;-76
2023/05/23 07:45:26;;;;;;;6.60;0.73;;;14.50;99.90;;;;;;5052721;28;20041;-76
2023/05/23 07:47:51;;;;;;;9.38;0.20;;;14.50;99.90;;;;;;5052685;28;20027;-76
2023/05/23 07:50:17;;;;;;;10.30;0.77;;;14.60;99.90;;;;;;5054935;28;20025;-76
2023/05/23 07:52:43;;;;;;;10.00;0.43;;;14.50;99.90;;;;;;5056896;28;20025;-76
2023/05/23 07:55:08;;;;;;;5.53;0.20;;;14.60;99.90;;;;;;5056258;28;20557;-76
2023/05/23 07:57:34;;;;;;;5.85;0.10;;;14.80;99.90;;;;;;5056450;28;20090;-76
2023/05/23 08:00:00;;;;;;;8.43;0.43;;;14.80;99.90;;;;;;5056778;28;20092;-76
2023/05/23 08:02:25;;;;;;;8.23;0.20;;;14.70;99.90;;;;;;5056288;28;20024;-76
2023/05/23 08:04:52;;;;;;;4.63;1.30;;;15.10;99.90;;;;;;5056133;28;20028;-76
2023/05/23 08:07:18;;;;;;;9.70;0.15;;;14.70;99.90;;;;;;5056027;28;20501;-76
2023/05/23 08:09:43;;;;;;;11.50;0.30;;;14.70;99.90;;;;;;5056124;28;20028;-76
2023/05/23 08:12:09;;;;;;;7.28;0.32;;;14.60;99.90;;;;;;5038102;28;20020;-76
2023/05/23 08:14:35;;;;;;;5.63;0.57;;;14.40;99.90;;;;;;5056040;28;20056;-76
2023/05/23 08:17:01;;;;;;;7.00;0.82;;;14.50;99.90;;;;;;5038101;28;20043;-76
2023/05/23 08:19:27;;;;;;;10.88;2.00;;;14.50;99.90;;;;;;5055887;28;20103;-76
2023/05/23 08:21:53;;;;;;;9.98;1.42;;;14.60;99.90;;;;;;5055940;28;20025;-76
2023/05/23 08:24:21;;;;;;;9.48;0.43;;;14.60;99.90;;;;;;5055691;28;20017;-76
2023/05/23 08:26:48;;;;;;;9.98;0.63;;;14.60;99.90;;;;;;5055805;28;20484;-76
2023/05/23 08:29:14;;;;;;;5.78;0.22;;;14.60;99.90;;;;;;5055720;28;20017;-76
2023/05/23 08:31:40;;;;;;;7.18;0.20;;;14.70;99.90;;;;;;5056272;28;20482;-76
2023/05/23 08:34:06;;;;;;;6.35;0.70;;;14.70;99.90;;;;;;5055585;28;20028;-76
2023/05/23 08:36:35;;;;;;;14.35;0.82;;;14.70;99.90;;;;;;5037611;28;20060;-76
2023/05/23 08:39:01;;;;;;;2.75;0.13;;;14.70;99.90;;;;;;5056025;28;20028;-76
2023/05/23 08:41:26;;;;;;;6.72;0.50;;;14.80;99.90;;;;;;5037466;28;20033;-76
2023/05/23 08:43:52;;;;;;;5.75;0.38;;;14.80;99.90;;;;;;5055780;28;20032;-76
2023/05/23 08:46:18;;;;;;;9.05;0.73;;;15.10;99.90;;;;;;5055347;28;20025;-76
2023/05/23 08:48:50;;;;;;;3.47;0.20;;;15.50;99.90;;;;;;5055418;28;20029;-76
2023/05/23 08:51:17;;;;;;;5.70;0.68;;;15.60;99.90;;;;;;5055383;28;20100;-76
2023/05/23 08:53:46;;;;;;;5.18;0.75;;;16.30;99.90;;;;;;5055586;28;20482;-76
2023/05/23 08:56:12;;;;;;;9.73;0.43;;;16.70;99.90;;;;;;5055197;28;20025;-76
2023/05/23 08:58:40;;;;;;;3.80;0.20;;;16.50;99.90;;;;;;5037317;28;20028;-76
2023/05/23 09:01:07;;;;;;;4.53;0.52;;;16.60;99.90;;;;;;5054602;28;20385;-76
2023/05/23 09:03:36;;;;;;;5.57;0.57;;;16.40;99.90;;;;;;5054963;28;20104;-76
2023/05/23 09:06:08;;;;;;;5.60;0.77;;;16.10;99.90;;;;;;5055026;28;20104;-76
2023/05/23 09:08:35;;;;;;;5.18;0.77;;;16.00;99.90;;;;;;5055087;28;20531;-76
2023/05/23 09:11:05;;;;;;;7.90;0.90;;;16.10;99.90;;;;;;5037385;28;20016;-76
2023/05/23 09:13:32;;;;;;;9.93;0.30;;;16.20;99.90;;;;;;5036979;28;20029;-76
2023/05/23 09:16:05;;;;;;;6.00;0.40;;;16.70;99.90;;;;;;5054843;28;20032;-76
2023/05/23 09:18:37;;;;;;;5.57;0.30;;;16.60;99.90;;;;;;5054589;28;20082;-76
2023/05/23 09:21:03;;;;;;;3.15;0.55;;;16.40;99.90;;;;;;5054594;28;20029;-76
2023/05/23 09:23:33;;;;;;;7.50;0.43;;;16.40;99.90;;;;;;5036696;28;20033;-76
2023/05/23 09:26:03;;;;;;;9.77;1.00;;;16.50;99.90;;;;;;5054549;28;20082;-76
2023/05/23 09:28:30;;;;;;;7.15;0.43;;;17.00;99.90;;;;;;5054376;28;20025;-76
2023/05/23 09:31:03;;;;;;;7.75;0.75;;;17.10;99.90;;;;;;5054471;28;20017;-76
2023/05/23 09:33:38;;;;;;;3.90;0.10;;;17.20;99.90;;;;;;5054485;28;20039;-76
2023/05/23 09:36:05;;;;;;;9.30;0.80;;;17.40;99.90;;;;;;5054432;28;20032;-76
2023/05/23 09:38:31;;;;;;;7.80;0.43;;;17.70;99.90;;;;;;5054241;28;20104;-76
2023/05/23 09:40:58;;;;;;;5.35;0.60;;;17.60;99.90;;;;;;5036395;28;20155;-76
2023/05/23 09:43:24;;;;;;;4.05;0.30;;;17.60;99.90;;;;;;5054054;28;20109;-76
2023/05/23 09:45:51;;;;;;;6.68;0.55;;;17.70;99.90;;;;;;5054137;28;20096;-76
2023/05/23 09:48:16;;;;;;;9.35;1.38;;;18.00;98.40;;;;;;5054013;28;20017;-76
2023/05/23 09:50:44;;;;;;;1.80;0.10;;;18.10;98.50;;;;;;5054051;28;20395;-76
2023/05/23 09:53:10;;;;;;;7.25;0.30;;;18.20;99.10;;;;;;5054548;28;20033;-76
2023/05/23 09:55:36;;;;;;;6.07;0.30;;;18.50;98.20;;;;;;5054002;28;20025;-76
2023/05/23 09:58:03;;;;;;;6.45;0.28;;;18.00;96.60;;;;;;5054367;28;20029;-76
2023/05/23 10:00:28;;;;;;;7.57;0.55;;;17.90;97.50;;;;;;5053875;28;20369;-76
2023/05/23 10:03:11;;;;;;;5.65;0.68;;;17.80;98.70;;;;;;5053833;28;20032;-76
2023/05/23 10:05:50;;;;;;;7.63;0.30;;;17.50;98.90;;;;;;5053863;28;20400;-76
2023/05/23 10:08:21;;;;;;;7.03;0.50;;;17.40;98.20;;;;;;5035826;28;20009;-76
2023/05/23 10:10:55;;;;;;;5.00;0.10;;;17.00;99.90;;;;;;5053686;28;20531;-76
2023/05/23 10:13:24;;;;;;;3.67;0.20;;;17.00;98.00;;;;;;5053322;28;20025;-76
2023/05/23 10:15:59;;;;;;;6.63;0.17;;;16.90;98.30;;;;;;5035762;28;20032;-76
2023/05/23 10:18:38;;;;;;;3.13;0.17;;;17.10;99.90;;;;;;5035748;28;20037;-76
2023/05/23 10:21:08;;;;;;;9.07;0.52;;;17.20;99.60;;;;;;5053617;28;20121;-76
2023/05/23 10:23:36;;;;;;;5.07;0.50;;;17.20;99.00;;;;;;5053356;28;20025;-76
2023/05/23 10:26:03;;;;;;;9.43;1.33;;;17.20;99.90;;;;;;5035589;28;20052;-76
2023/05/23 10:28:30;;;;;;;10.70;0.30;;;16.80;99.90;;;;;;5053407;28;20021;-76
2023/05/23 10:30:56;;;;;;;7.50;1.08;;;16.80;99.90;;;;;;5035446;28;20029;-76
2023/05/23 10:33:22;;;;;;;7.47;0.35;;;16.70;99.90;;;;;;5035530;28;20491;-76
2023/05/23 10:36:09;;;;;;;6.13;0.28;;;16.70;99.90;;;;;;5035467;28;20025;-76
2023/05/23 10:38:49;;;;;;;6.20;0.57;;;17.50;99.90;;;;;;5035315;28;20021;-76
2023/05/23 10:41:25;;;;;;;13.95;0.95;;;17.90;97.60;;;;;;5053263;28;20083;-76
2023/05/23 10:43:59;;;;;;;13.57;0.57;;;18.20;97.60;;;;;;5035237;28;20017;-76
2023/05/23 10:46:53;;;;;;;6.13;0.88;;;18.30;97.70;;;;;;5053689;28;20071;-76
2023/05/23 10:49:21;;;;;;;7.68;0.45;;;18.60;98.10;;;;;;5035997;28;20029;-76
2023/05/23 10:51:53;;;;;;;9.55;1.15;;;18.50;96.70;;;;;;5035302;28;20116;-76
2023/05/23 10:54:19;;;;;;;8.02;0.32;;;17.70;98.40;;;;;;5035579;28;20029;-76
2023/05/23 10:56:45;;;;;;;6.68;0.57;;;17.70;98.30;;;;;;5053017;28;20025;-76
2023/05/23 10:59:20;;;;;;;5.45;0.50;;;17.20;99.40;;;;;;5052944;28;20112;-76
2023/05/23 11:01:46;;;;;;;5.15;0.28;;;17.10;99.90;;;;;;5035234;28;20025;-76
2023/05/23 11:04:11;;;;;;;8.38;0.40;;;17.20;99.00;;;;;;5052864;28;20032;-76
2023/05/23 11:06:43;;;;;;;6.13;0.77;;;17.60;99.80;;;;;;5035128;28;20057;-76
2023/05/23 11:09:08;;;;;;;8.00;0.57;;;17.90;99.40;;;;;;5052888;28;20017;-76
2023/05/23 11:12:02;;;;;;;8.35;0.73;;;18.10;96.90;;;;;;5052992;28;20022;-76
2023/05/23 11:14:39;;;;;;;4.32;0.32;;;18.30;94.80;;;;;;5052937;28;20091;-76
2023/05/23 11:17:11;;;;;;;7.63;0.55;;;18.30;94.00;;;;;;5035019;28;20183;-76
2023/05/23 11:19:37;;;;;;;11.55;0.22;;;18.00;92.80;;;;;;5035316;28;20045;-76
2023/05/23 11:22:06;;;;;;;1.95;0.10;;;17.90;93.70;;;;;;5052838;28;20017;-76
2023/05/23 11:24:55;;;;;;;4.30;0.30;;;18.00;94.30;;;;;;5036173;28;20032;-76
2023/05/23 11:27:31;;;;;;;;;;;18.10;94.60;;;;;;5057715;28;20036;-76
2023/05/23 11:29:58;;;;;;;5.93;0.32;;;18.00;94.80;;;;;;5038750;28;19954;-76
2023/05/23 11:32:26;;;;;;;5.93;0.77;;;18.00;95.40;;;;;;5038776;28;20488;-76
2023/05/23 11:34:51;;;;;;;16.88;1.10;;;17.80;96.20;;;;;;5056759;28;20021;-76
2023/05/23 11:37:17;;;;;;;6.03;0.32;;;17.70;97.30;;;;;;5056553;28;20039;-76
2023/05/23 11:39:43;;;;;;;9.98;0.43;;;17.60;97.50;;;;;;5056488;28;20033;-76
2023/05/23 11:42:09;;;;;;;9.50;1.20;;;17.50;98.50;;;;;;5056442;28;20480;-76
2023/05/23 11:44:34;;;;;;;7.18;0.82;;;17.40;99.60;;;;;;5056341;28;20112;-76
2023/05/23 11:47:05;;;;;;;10.65;0.55;;;17.70;99.90;;;;;;5056343;28;20025;-76
2023/05/23 11:49:33;;;;;;;5.85;0.55;;;18.30;99.30;;;;;;5056154;28;20509;-76
2023/05/23 11:52:00;;;;;;;6.57;0.27;;;18.50;96.40;;;;;;5038593;28;20025;-76
2023/05/23 11:54:26;;;;;;;5.68;0.32;;;18.30;95.90;;;;;;5038429;28;20017;-76
2023/05/23 11:56:52;;;;;;;2.58;0.10;;;18.00;96.90;;;;;;5056304;28;20032;-76
2023/05/23 11:59:17;;;;;;;3.42;0.20;;;17.70;95.30;;;;;;5038107;28;20082;-76
2023/05/23 12:01:43;;;;;;;7.53;0.22;;;17.60;96.70;;;;;;5038367;28;20024;-76
2023/05/23 12:04:13;;;;;;;5.30;0.52;;;18.10;96.50;;;;;;5038200;28;20372;-76
2023/05/23 12:06:40;;;;;;;4.90;0.50;;;18.70;94.70;;;;;;5056165;28;20024;-76
2023/05/23 12:09:06;;;;;;;8.85;0.57;;;18.70;95.30;;;;;;5056041;28;20042;-76
2023/05/23 12:11:33;;;;;;;6.72;0.40;;;18.60;94.60;;;;;;5038036;28;20052;-76
2023/05/23 12:14:01;;;;;;;4.68;0.05;;;18.30;95.10;;;;;;5055890;28;20029;-76
2023/05/23 12:16:28;;;;;;;7.77;0.83;;;17.80;95.40;;;;;;5055929;28;20031;-76
2023/05/23 12:18:55;;;;;;;8.60;0.65;;;18.10;97.60;;;;;;5056332;28;20260;-76
2023/05/23 12:21:25;;;;;;;5.10;0.38;;;18.00;95.60;;;;;;5055812;28;20032;-76
2023/05/23 12:23:50;;;;;;;4.30;0.60;;;18.90;94.30;;;;;;5055646;28;20089;-76
2023/05/23 12:26:16;;;;;;;9.85;0.47;;;19.30;93.10;;;;;;5037835;28;20053;-76
2023/05/23 12:28:44;;;;;;;2.13;0.38;;;19.10;91.30;;;;;;5037744;28;20028;-76
2023/05/23 12:31:16;;;;;;;3.90;0.20;;;19.00;91.60;;;;;;5055609;28;20031;-76
2023/05/23 12:33:43;;;;;;;6.70;0.38;;;18.50;94.00;;;;;;5055569;28;20017;-76
2023/05/23 12:36:10;;;;;;;7.97;0.93;;;18.60;95.20;;;;;;5054472;28;20100;-76
2023/05/23 12:38:39;;;;;;;6.30;0.77;;;18.70;94.10;;;;;;5037489;28;20104;-76
2023/05/23 12:41:12;;;;;;;12.63;1.20;;;18.70;94.40;;;;;;5056092;28;20116;-76
2023/05/23 12:43:39;;;;;;;7.43;0.30;;;18.50;96.00;;;;;;5055394;28;20025;-76